createdAt,value
2019-05-03T00:03:34.094Z,96575.10
2019-05-03T00:08:41.471Z,96681.84
2019-05-03T00:13:47.267Z,96773.89
2019-05-03T00:18:53.143Z,96873.70
2019-05-03T00:23:59.215Z,96947.37
2019-05-03T00:29:05.193Z,97036.66
2019-05-03T00:34:21.844Z,97036.66
2019-05-03T00:39:29.307Z,97086.40
2019-05-03T00:44:35.086Z,97101.45
2019-05-03T00:49:42.556Z,97117.47
2019-05-03T00:54:48.364Z,97136.05
2019-05-03T00:59:54.141Z,97162.80
2019-05-03T01:04:59.903Z,97200.76
2019-05-03T01:10:09.090Z,97213.88
2019-05-03T01:15:22.605Z,97271.70
2019-05-03T01:20:28.474Z,97289.73
2019-05-03T01:25:35.575Z,97339.80
2019-05-03T01:30:42.496Z,97367.60
2019-05-03T01:35:48.840Z,97392.16
2019-05-03T01:40:54.469Z,97432.25
2019-05-03T01:46:02.515Z,97447.30
2019-05-03T01:51:12.349Z,97469.08
2019-05-03T01:56:18.168Z,97493.86
2019-05-03T02:01:42.200Z,97512.20
2019-05-03T02:06:48.354Z,97548.29
2019-05-03T02:11:54.319Z,97548.16
2019-05-03T02:17:01.835Z,97557.98
2019-05-03T02:22:07.647Z,97566.08
2019-05-03T02:27:14.502Z,97569.67
2019-05-03T02:32:23.123Z,97589.42
2019-05-03T02:37:27.777Z,97593.20
2019-05-03T02:42:35.597Z,97608.47
2019-05-03T02:47:47.199Z,97626.50
2019-05-03T02:52:55.182Z,97628.44
2019-05-03T02:58:00.983Z,97652.39
2019-05-03T03:03:06.799Z,97665.33
2019-05-03T03:08:12.783Z,97664.59
2019-05-03T03:13:20.099Z,97675.00
2019-05-03T03:18:25.939Z,97680.76
2019-05-03T03:23:35.492Z,97696.63
2019-05-03T03:28:46.247Z,97690.19
2019-05-03T03:33:52.381Z,97691.69
2019-05-03T03:38:58.504Z,97699.89
2019-05-03T03:44:05.809Z,97718.41
2019-05-03T03:49:15.537Z,97727.34
2019-05-03T03:54:22.428Z,97744.53
2019-05-03T03:59:28.168Z,97744.49
2019-05-03T04:04:36.018Z,97757.42
2019-05-03T04:09:45.378Z,97751.69
2019-05-03T04:14:56.256Z,97778.91
2019-05-03T04:20:04.973Z,97774.58
2019-05-03T04:25:11.441Z,97794.30
2019-05-03T04:30:18.201Z,97801.50
2019-05-03T04:35:26.444Z,97802.45
2019-05-03T04:40:31.482Z,97830.86
2019-05-03T04:45:37.557Z,97840.00
2019-05-03T04:50:45.671Z,97870.87
2019-05-03T04:55:50.999Z,97886.12
2019-05-03T05:00:57.003Z,97892.52
2019-05-03T05:06:02.831Z,97878.62
2019-05-03T05:11:10.507Z,97893.07
2019-05-03T05:16:16.314Z,97888.70
2019-05-03T05:21:25.274Z,97909.77
2019-05-03T05:26:50.028Z,97912.37
2019-05-03T05:31:57.393Z,97928.19
2019-05-03T05:37:03.102Z,97946.23
2019-05-03T05:42:09.863Z,97954.92
2019-05-03T05:47:26.719Z,97954.55
2019-05-03T05:52:34.521Z,97968.31
2019-05-03T05:58:01.970Z,97955.73
2019-05-03T06:02:58.364Z,97970.88
2019-05-03T06:08:22.029Z,97991.38
2019-05-03T06:13:29.357Z,98017.20
2019-05-03T06:18:39.943Z,98021.45
2019-05-03T06:23:47.357Z,98035.92
2019-05-03T06:28:54.510Z,98002.97
2019-05-03T06:34:00.424Z,98018.30
2019-05-03T06:39:10.696Z,98027.26
2019-05-03T06:44:19.161Z,98040.80
2019-05-03T06:49:25.618Z,98061.10
2019-05-03T06:54:31.487Z,98040.81
2019-05-03T06:59:39.095Z,98050.56
2019-05-03T07:04:56.205Z,98028.43
2019-05-03T07:10:06.343Z,98091.53
2019-05-03T07:15:14.406Z,98048.48
2019-05-03T07:20:19.747Z,98068.56
2019-05-03T07:25:25.974Z,98020.94
2019-05-03T07:30:34.532Z,98005.73
2019-05-03T07:35:39.656Z,98029.22
2019-05-03T07:40:45.529Z,98028.39
2019-05-03T07:45:51.546Z,98050.46
2019-05-03T07:50:57.266Z,98023.78
2019-05-03T07:56:15.489Z,98033.61
2019-05-03T08:01:25.011Z,98047.59
2019-05-03T08:06:30.240Z,98069.06
2019-05-03T08:11:36.855Z,98089.89
2019-05-03T08:16:42.660Z,98106.06
2019-05-03T08:21:48.469Z,98122.10
2019-05-03T08:26:55.763Z,98190.45
2019-05-03T08:32:05.035Z,98281.16
2019-05-03T08:37:12.437Z,98321.44
2019-05-03T08:42:19.817Z,98301.41
2019-05-03T08:47:25.825Z,98459.53
2019-05-03T08:52:31.692Z,98389.56
2019-05-03T08:57:37.457Z,98461.56
2019-05-03T09:02:44.730Z,98501.41
2019-05-03T09:07:50.969Z,98394.31
2019-05-03T09:13:07.466Z,98467.67
2019-05-03T09:18:17.375Z,98710.08
2019-05-03T09:23:23.988Z,98798.43
2019-05-03T09:28:29.623Z,98957.43
2019-05-03T09:33:35.753Z,99063.36
2019-05-03T09:38:41.629Z,99077.16
2019-05-03T09:43:48.462Z,99184.73
2019-05-03T09:49:09.472Z,99160.85
2019-05-03T09:54:22.852Z,99249.90
2019-05-03T09:59:35.180Z,99087.27
2019-05-03T10:04:44.611Z,99100.03
2019-05-03T10:09:50.437Z,99248.02
2019-05-03T10:14:56.209Z,99275.64
2019-05-03T10:20:02.201Z,99240.34
2019-05-03T10:25:10.537Z,99295.97
2019-05-03T10:30:19.752Z,99448.08
2019-05-03T10:35:25.942Z,99564.97
2019-05-03T10:40:32.127Z,99711.76
2019-05-03T10:45:38.411Z,99938.33
2019-05-03T10:50:44.578Z,99953.14
2019-05-03T10:56:08.538Z,99992.72
2019-05-03T11:01:17.007Z,100017.75
2019-05-03T11:06:22.816Z,99970.87
2019-05-03T11:11:28.747Z,99960.19
2019-05-03T11:16:35.277Z,99964.23
2019-05-03T11:21:41.139Z,99982.67
2019-05-03T11:26:49.653Z,100014.47
2019-05-03T11:32:08.260Z,100025.81
2019-05-03T11:37:21.350Z,100025.75
2019-05-03T11:42:27.219Z,100036.66
2019-05-03T11:47:34.863Z,100028.95
2019-05-03T11:52:40.914Z,100037.10
2019-05-03T11:57:46.782Z,100059.41
2019-05-03T12:02:55.595Z,100081.75
2019-05-03T12:08:02.017Z,100110.73
2019-05-03T12:13:27.843Z,100121.81
2019-05-03T12:18:47.880Z,100140.30
2019-05-03T12:23:41.823Z,100163.68
2019-05-03T12:28:48.077Z,100148.77
2019-05-03T12:33:55.100Z,100134.72
2019-05-03T12:39:00.939Z,100158.06
2019-05-03T12:44:08.203Z,100155.63
2019-05-03T12:49:15.505Z,100159.02
2019-05-03T12:54:21.291Z,100133.80
2019-05-03T12:59:31.649Z,100143.23
2019-05-03T13:04:39.035Z,100154.53
2019-05-03T13:09:45.745Z,100160.92
2019-05-03T13:14:51.512Z,100141.50
2019-05-03T13:19:57.426Z,100136.33
2019-05-03T13:25:03.842Z,100141.45
2019-05-03T13:30:10.814Z,100144.59
2019-05-03T13:35:16.639Z,100155.60
2019-05-03T13:40:22.507Z,100143.13
2019-05-03T13:45:28.210Z,100143.95
2019-05-03T13:50:35.156Z,100146.63
2019-05-03T13:55:41.139Z,100138.16
2019-05-03T14:00:47.453Z,100145.29
2019-05-03T14:05:55.057Z,100144.25
2019-05-03T14:11:01.016Z,100147.16
2019-05-03T14:16:06.893Z,100167.05
2019-05-03T14:21:29.484Z,100167.14
2019-05-03T14:26:35.329Z,100158.77
2019-05-03T14:31:41.012Z,100158.23
2019-05-03T14:36:47.670Z,100162.45
2019-05-03T14:41:55.521Z,100149.43
2019-05-03T14:47:01.457Z,100145.91
2019-05-03T14:52:07.365Z,100148.41
2019-05-03T14:57:30.192Z,100150.59
2019-05-03T15:02:50.063Z,100150.22
2019-05-03T15:07:50.950Z,100145.91
2019-05-03T15:12:56.732Z,100148.29
2019-05-03T15:18:02.439Z,100155.34
2019-05-03T15:23:08.092Z,100148.42
2019-05-03T15:28:13.736Z,100146.80
2019-05-03T15:33:19.398Z,100150.71
2019-05-03T15:38:25.078Z,100146.56
2019-05-03T15:43:48.590Z,100154.63
2019-05-03T15:48:58.770Z,100148.91
2019-05-03T15:54:04.804Z,100138.56
2019-05-03T15:59:10.658Z,100145.80
2019-05-03T16:04:16.530Z,100143.78
2019-05-03T16:09:22.329Z,100146.43
2019-05-03T16:14:28.187Z,100141.42
2019-05-03T16:19:35.452Z,100142.90
2019-05-03T16:24:41.443Z,100139.00
2019-05-03T16:29:47.319Z,100132.03
2019-05-03T16:34:54.883Z,100123.50
2019-05-03T16:40:00.880Z,100127.30
2019-05-03T16:45:07.015Z,100128.03
2019-05-03T16:50:14.516Z,100127.20
2019-05-03T16:55:21.483Z,100129.08
2019-05-03T17:00:27.268Z,100118.19
2019-05-03T17:05:51.066Z,100127.84
2019-05-03T17:11:10.962Z,100125.06
2019-05-03T17:16:16.710Z,100122.36
2019-05-03T17:21:22.429Z,100110.02
2019-05-03T17:26:28.140Z,100113.36
2019-05-03T17:31:35.187Z,100095.97
2019-05-03T17:36:41.267Z,100086.52
2019-05-03T17:41:54.878Z,100051.61
2019-05-03T17:47:00.639Z,100023.67
2019-05-03T17:52:07.982Z,99992.22
2019-05-03T17:57:21.538Z,99960.41
2019-05-03T18:02:31.566Z,99956.41
2019-05-03T18:07:55.160Z,99926.78
2019-05-03T18:13:00.999Z,99905.80
2019-05-03T18:18:07.819Z,99864.87
2019-05-03T18:23:15.293Z,99801.58
2019-05-03T18:28:21.129Z,99748.09
2019-05-03T18:33:26.765Z,99651.69
2019-05-03T18:38:35.214Z,99608.95
2019-05-03T18:43:42.664Z,99592.33
2019-05-03T18:48:48.527Z,99572.70
2019-05-03T18:53:54.531Z,99553.06
2019-05-03T18:59:00.426Z,99559.87
2019-05-03T19:04:14.704Z,99539.81
2019-05-03T19:09:25.388Z,99538.69
2019-05-03T19:14:31.187Z,99533.16
2019-05-03T19:19:44.549Z,99528.13
2019-05-03T19:24:50.670Z,99516.68
2019-05-03T19:29:56.667Z,99499.56
2019-05-03T19:35:02.460Z,99488.58
2019-05-03T19:40:11.117Z,99491.91
2019-05-03T19:45:16.972Z,99487.65
2019-05-03T19:50:26.961Z,99512.83
2019-05-03T19:55:30.523Z,99528.95
2019-05-03T20:00:48.047Z,99518.53
2019-05-03T20:05:58.227Z,99529.70
2019-05-03T20:11:16.993Z,99538.41
2019-05-03T20:16:22.826Z,99540.32
2019-05-03T20:21:28.734Z,99562.27
2019-05-03T20:26:34.926Z,99544.53
2019-05-03T20:31:40.789Z,99513.20
2019-05-03T20:36:46.557Z,99513.20
2019-05-03T20:41:52.305Z,99522.38
2019-05-03T20:46:59.728Z,99492.84
2019-05-03T20:52:05.397Z,99463.20
2019-05-03T20:57:11.269Z,99438.79
2019-05-03T21:02:17.342Z,99416.77
2019-05-03T21:07:23.340Z,99404.03
2019-05-03T21:12:31.439Z,99382.71
2019-05-03T21:17:45.168Z,99382.71
2019-05-03T21:22:51.994Z,99378.14
2019-05-03T21:27:57.917Z,99378.38
2019-05-03T21:33:05.431Z,99372.98
2019-05-03T21:38:11.756Z,99378.53
2019-05-03T21:43:17.626Z,99372.25
2019-05-03T21:48:41.628Z,99372.25
2019-05-03T21:53:47.602Z,99369.91
2019-05-03T21:58:55.285Z,99381.81
2019-05-03T22:04:01.081Z,99401.18
2019-05-03T22:09:07.563Z,99416.79
2019-05-03T22:14:17.053Z,99416.79
2019-05-03T22:19:24.925Z,99423.81
2019-05-03T22:24:32.478Z,99433.34
2019-05-03T22:29:39.892Z,99431.38
2019-05-03T22:34:45.730Z,99436.48
2019-05-03T22:39:51.605Z,99443.78
2019-05-03T22:44:57.371Z,99451.47
2019-05-03T22:50:05.271Z,99431.69
2019-05-03T22:55:10.692Z,99430.30
2019-05-03T23:00:16.829Z,99416.18
2019-05-03T23:05:23.416Z,99394.23
2019-05-03T23:10:29.284Z,99368.45
2019-05-03T23:15:35.156Z,99339.98
2019-05-03T23:20:42.558Z,99339.98
2019-05-03T23:25:48.435Z,99319.17
2019-05-03T23:30:54.812Z,99278.41
2019-05-03T23:36:00.799Z,99258.59
2019-05-03T23:41:06.673Z,99229.63
2019-05-03T23:46:14.604Z,99279.89
2019-05-03T23:51:38.586Z,99270.80
2019-05-03T23:56:45.842Z,99259.84
